Weather History for KPSO - October, 2012

Change the Weather History Date:

Tuesday, October 16, 2012

  Actual Average (KDRO) Record (KDRO)
Temperature  
Mean Temperature 48 °F 47 °F  
Max Temperature 67 °F 63 °F 78 °F (1988)
Min Temperature 29 °F 31 °F 20 °F (1984)
Degree Days  
Heating Degree Days 17 18  
Month to date heating degree days 243  
Since 1 July heating degree days 467  
Cooling Degree Days 0 0  
Month to date cooling degree days 0  
Year to date cooling degree days 243  
Moisture  
Dew Point 21 °F    
Average Humidity 41    
Maximum Humidity 78    
Minimum Humidity 14    
Precipitation  
Precipitation 0.00 in 0.04 in 0.68 in (1972)
Month to date precipitation 0.79  
Year to date precipitation 12.67  
Sea Level Pressure  
Sea Level Pressure 30.08 in    
Wind  
Wind Speed 3 mph (SW)    
Max Wind Speed 16 mph    
Max Gust Speed 24 mph    
Visibility 10 miles    
Events      
T = Trace of Precipitation, MM = Missing Value Source: NWS Daily Summary

Daily Weather History Graph

Daily Weather History Graph

Search for Another Location

Airport or City:

Trip Planner

Search our weather history database for the weather conditions in past years. The results will help you decide how hot, cold, wet, or windy it might be!

Date:

Astronomy

Oct. 16, 2012 Rise Set
Actual Time 7:17 AM MDT 6:29 PM MDT
Civil Twilight 6:51 AM MDT 6:55 PM MDT
Nautical Twilight 6:20 AM MDT 7:25 PM MDT
Astronomical Twilight 5:50 AM MDT 7:55 PM MDT
Moon 8:41 AM MDT (10/16) 7:19 PM MDT (10/16)
Length of Visible Light 12h 04m
Length of Day
11h 11m
New Moon, 2% of the Moon is Illuminated
Oct 16
New Moon
Oct 21
First Quarter
Oct 29
Full
Nov 6
Last Quarter
Nov 13
New

Hourly Weather History & Observations

Time (MDT) Temp. Windchill Dew Point Humidity Pressure Visibility Wind Dir Wind Speed Gust Speed Precip Events Conditions
12:15 AM 36.7 °F - 25.2 °F 63% 30.19 in 10.0 mi Calm Calm - N/A   Clear
12:35 AM 37.6 °F - 25.7 °F 62% 30.19 in 10.0 mi Calm Calm - N/A   Clear
12:55 AM 36.3 °F - 25.0 °F 63% 30.17 in 10.0 mi Calm Calm - N/A   Clear
1:15 AM 34.2 °F - 24.8 °F 69% 30.18 in 10.0 mi Calm Calm - N/A   Clear
1:35 AM 35.8 °F - 25.7 °F 67% 30.18 in 10.0 mi Calm Calm - N/A   Clear
1:55 AM 35.2 °F 32.4 °F 25.7 °F 68% 30.18 in 10.0 mi WNW 3.5 mph - N/A   Clear
2:15 AM 32.9 °F - 25.0 °F 73% 30.18 in 10.0 mi Calm Calm - N/A   Clear
2:35 AM 34.7 °F - 25.0 °F 68% 30.19 in 10.0 mi Calm Calm - N/A   Clear
2:55 AM 33.8 °F - 24.8 °F 70% 30.19 in 10.0 mi Calm Calm - N/A   Clear
3:15 AM 33.3 °F - 24.4 °F 70% 30.19 in 10.0 mi Calm Calm - N/A   Clear
3:35 AM 34.7 °F - 25.3 °F 69% 30.17 in 10.0 mi Calm Calm - N/A   Clear
3:55 AM 35.6 °F - 24.6 °F 64% 30.17 in 10.0 mi Calm Calm - N/A   Clear
4:15 AM 32.0 °F - 24.6 °F 74% 30.17 in 10.0 mi Calm Calm - N/A   Clear
4:35 AM 31.3 °F - 24.1 °F 75% 30.16 in 10.0 mi Calm Calm - N/A   Clear
4:55 AM 31.1 °F - 24.6 °F 77% 30.17 in 10.0 mi Calm Calm - N/A   Clear
5:15 AM 32.9 °F - 25.0 °F 73% 30.16 in 10.0 mi Calm Calm - N/A   Clear
5:35 AM 32.4 °F - 23.4 °F 69% 30.16 in 10.0 mi Calm Calm - N/A   Clear
6:15 AM 30.2 °F - 23.9 °F 77% 30.17 in 10.0 mi Calm Calm - N/A   Clear
6:35 AM 29.8 °F - 22.8 °F 75% 30.16 in 10.0 mi Calm Calm - N/A   Clear
6:55 AM 30.4 °F - 23.7 °F 76% 30.16 in 10.0 mi Calm Calm - N/A   Clear
7:15 AM 31.1 °F - 23.7 °F 74% 30.16 in 10.0 mi Calm Calm - N/A   Clear
7:35 AM 32.0 °F - 25.0 °F 75% 30.16 in 10.0 mi Calm Calm - N/A   Clear
7:55 AM 33.1 °F - 25.0 °F 72% 30.16 in 10.0 mi Calm Calm - N/A   Clear
8:15 AM 33.1 °F - 26.8 °F 78% 30.17 in 10.0 mi Calm Calm - N/A   Clear
8:35 AM 38.8 °F - 26.2 °F 61% 30.17 in 10.0 mi Calm Calm - N/A   Clear
8:55 AM 42.3 °F - 24.8 °F 50% 30.17 in 10.0 mi Calm Calm - N/A   Clear
9:15 AM 45.5 °F - 23.0 °F 41% 30.17 in 10.0 mi Calm Calm - N/A   Clear
9:35 AM 47.1 °F - 21.9 °F 37% 30.17 in 10.0 mi Calm Calm - N/A   Clear
9:55 AM 50.0 °F - 21.2 °F 32% 30.17 in 10.0 mi Calm Calm - N/A   Clear
10:15 AM 52.5 °F - 20.1 °F 28% 30.16 in 10.0 mi East 3.5 mph - N/A   Clear
10:35 AM 54.3 °F - 21.9 °F 28% 30.16 in 10.0 mi Calm Calm - N/A   Clear
10:55 AM 54.9 °F - 20.3 °F 26% 30.15 in 10.0 mi Calm Calm - N/A   Clear
11:15 AM 56.5 °F - 19.8 °F 24% 30.14 in 10.0 mi Calm Calm - N/A   Clear
11:35 AM 57.9 °F - 19.2 °F 22% 30.13 in 10.0 mi WSW 4.6 mph - N/A   Clear
11:55 AM 59.2 °F - 19.9 °F 22% 30.13 in 10.0 mi South 3.5 mph - N/A   Clear
12:15 PM 60.8 °F - 18.7 °F 20% 30.12 in 10.0 mi SW 9.2 mph - N/A   Clear
12:35 PM 61.3 °F - 16.5 °F 18% 30.12 in 10.0 mi SSW 11.5 mph 18.4 mph N/A   Clear
12:55 PM 62.6 °F - 17.1 °F 17% 30.11 in 10.0 mi WSW 10.4 mph - N/A   Clear
1:15 PM 62.8 °F - 17.6 °F 17% 30.09 in 10.0 mi SW 11.5 mph - N/A   Clear
1:35 PM 63.1 °F - 17.4 °F 17% 30.07 in 10.0 mi WSW 5.8 mph - N/A   Clear
1:55 PM 64.8 °F - 14.2 °F 14% 30.06 in 10.0 mi SW 10.4 mph 17.3 mph N/A   Clear
2:15 PM 65.7 °F - 17.1 °F 15% 30.05 in 10.0 mi SW 12.7 mph 19.6 mph N/A   Clear
2:35 PM 65.8 °F - 19.0 °F 17% 30.04 in 10.0 mi SW 15.0 mph 20.7 mph N/A   Clear
2:55 PM 65.7 °F - 19.8 °F 17% 30.03 in 10.0 mi South 10.4 mph 17.3 mph N/A   Clear
3:15 PM 65.8 °F - 19.6 °F 17% 30.02 in 10.0 mi SW 13.8 mph 17.3 mph N/A   Clear
3:35 PM 66.6 °F - 18.7 °F 16% 30.01 in 10.0 mi SW 9.2 mph 17.3 mph N/A   Clear
3:55 PM 67.1 °F - 18.1 °F 15% 30.00 in 10.0 mi SW 12.7 mph 20.7 mph N/A   Clear
4:15 PM 66.9 °F - 18.1 °F 15% 29.99 in 10.0 mi SW 13.8 mph 20.7 mph N/A   Clear
4:35 PM 66.4 °F - 18.7 °F 16% 29.99 in 10.0 mi WSW 16.1 mph 24.2 mph N/A   Clear
4:55 PM 66.2 °F - 17.8 °F 16% 29.98 in 10.0 mi SW 13.8 mph 20.7 mph N/A   Clear
5:15 PM 66.0 °F - 17.1 °F 15% 29.97 in 10.0 mi SSW 13.8 mph 18.4 mph N/A   Clear
5:35 PM 65.7 °F - 16.3 °F 15% 29.96 in 10.0 mi SW 16.1 mph 23.0 mph N/A   Clear
5:55 PM 64.9 °F - 17.1 °F 16% 29.95 in 10.0 mi WSW 12.7 mph 21.9 mph N/A   Clear
6:15 PM 63.5 °F - 17.2 °F 17% 29.95 in 10.0 mi SW 13.8 mph 21.9 mph N/A   Clear
6:35 PM 62.2 °F - 18.9 °F 19% 29.95 in 10.0 mi WSW 15.0 mph 21.9 mph N/A   Clear
6:55 PM 61.5 °F - 19.0 °F 19% 29.95 in 10.0 mi SW 10.4 mph 16.1 mph N/A   Clear
7:15 PM 60.3 °F - 18.3 °F 20% 29.95 in 10.0 mi SW 12.7 mph 19.6 mph N/A   Clear
7:35 PM 59.2 °F - 19.0 °F 21% 29.95 in 10.0 mi SW 10.4 mph - N/A   Clear
7:55 PM 57.9 °F - 18.3 °F 21% 29.95 in 10.0 mi SW 9.2 mph - N/A   Clear
8:15 PM 57.0 °F - 17.6 °F 21% 29.96 in 10.0 mi SW 6.9 mph - N/A   Clear
8:35 PM 57.2 °F - 17.2 °F 21% 29.97 in 10.0 mi SW 10.4 mph - N/A   Clear
8:55 PM 56.3 °F - 17.4 °F 22% 29.97 in 10.0 mi WSW 6.9 mph - N/A   Clear
9:35 PM 46.8 °F - 19.4 °F 34% 29.97 in 10.0 mi Calm Calm - N/A   Clear
9:55 PM 45.0 °F - 20.7 °F 38% 29.97 in 10.0 mi Calm Calm - N/A   Clear
10:15 PM 47.8 °F - 19.6 °F 33% 29.97 in 10.0 mi SW 3.5 mph - N/A   Clear
10:35 PM 46.0 °F - 20.3 °F 36% 29.97 in 10.0 mi Calm Calm - N/A   Clear
10:55 PM 42.6 °F - 21.2 °F 43% 29.97 in 10.0 mi Calm Calm - N/A   Clear
11:15 PM 45.9 °F - 20.5 °F 37% 29.97 in 10.0 mi Calm Calm - N/A   Clear
11:35 PM 45.1 °F - 20.8 °F 38% 29.97 in 10.0 mi Calm Calm - N/A   Clear
11:55 PM 43.7 °F - 21.0 °F 41% 29.97 in 10.0 mi Calm Calm - N/A   Clear